sensor_id;sensor_type;location;lat;lon;timestamp;P1;durP1;ratioP1;P2;durP2;ratioP2
77061;SDS011;65989;51.686;5.138;2023-07-28T00:00:02;18.30;;;13.40;;
77061;SDS011;65989;51.686;5.138;2023-07-28T00:02:28;17.05;;;12.68;;
77061;SDS011;65989;51.686;5.138;2023-07-28T00:04:53;14.03;;;12.53;;
77061;SDS011;65989;51.686;5.138;2023-07-28T00:07:18;14.93;;;12.50;;
77061;SDS011;65989;51.686;5.138;2023-07-28T00:09:43;14.77;;;12.40;;
77061;SDS011;65989;51.686;5.138;2023-07-28T00:12:09;14.77;;;12.57;;
77061;SDS011;65989;51.686;5.138;2023-07-28T00:14:34;16.93;;;12.97;;
77061;SDS011;65989;51.686;5.138;2023-07-28T00:16:59;15.77;;;12.37;;
77061;SDS011;65989;51.686;5.138;2023-07-28T00:19:25;14.50;;;12.10;;
77061;SDS011;65989;51.686;5.138;2023-07-28T00:21:50;14.97;;;11.47;;
77061;SDS011;65989;51.686;5.138;2023-07-28T00:24:16;16.52;;;12.50;;
77061;SDS011;65989;51.686;5.138;2023-07-28T00:26:41;16.63;;;12.10;;
77061;SDS011;65989;51.686;5.138;2023-07-28T00:29:06;16.27;;;12.50;;
77061;SDS011;65989;51.686;5.138;2023-07-28T00:31:32;16.30;;;11.43;;
77061;SDS011;65989;51.686;5.138;2023-07-28T00:33:58;18.43;;;11.63;;
77061;SDS011;65989;51.686;5.138;2023-07-28T00:36:23;16.70;;;11.97;;
77061;SDS011;65989;51.686;5.138;2023-07-28T00:38:48;13.87;;;11.13;;
77061;SDS011;65989;51.686;5.138;2023-07-28T00:41:13;16.77;;;11.20;;
77061;SDS011;65989;51.686;5.138;2023-07-28T00:43:39;16.27;;;10.60;;
77061;SDS011;65989;51.686;5.138;2023-07-28T00:46:04;14.73;;;11.00;;
77061;SDS011;65989;51.686;5.138;2023-07-28T00:48:29;15.93;;;11.50;;
77061;SDS011;65989;51.686;5.138;2023-07-28T00:50:54;15.03;;;10.47;;
77061;SDS011;65989;51.686;5.138;2023-07-28T00:53:20;14.40;;;10.13;;
77061;SDS011;65989;51.686;5.138;2023-07-28T00:55:46;14.68;;;10.13;;
77061;SDS011;65989;51.686;5.138;2023-07-28T00:58:11;16.83;;;10.33;;
77061;SDS011;65989;51.686;5.138;2023-07-28T01:00:36;15.47;;;10.13;;
77061;SDS011;65989;51.686;5.138;2023-07-28T01:03:05;16.80;;;9.93;;
77061;SDS011;65989;51.686;5.138;2023-07-28T01:05:33;17.38;;;9.95;;
77061;SDS011;65989;51.686;5.138;2023-07-28T01:07:59;15.33;;;10.50;;
77061;SDS011;65989;51.686;5.138;2023-07-28T01:10:30;15.68;;;9.60;;
77061;SDS011;65989;51.686;5.138;2023-07-28T01:12:56;15.07;;;9.45;;
77061;SDS011;65989;51.686;5.138;2023-07-28T01:15:21;16.00;;;10.10;;
77061;SDS011;65989;51.686;5.138;2023-07-28T01:17:48;15.95;;;9.90;;
77061;SDS011;65989;51.686;5.138;2023-07-28T01:20:13;14.13;;;8.90;;
77061;SDS011;65989;51.686;5.138;2023-07-28T01:25:28;14.13;;;9.30;;
77061;SDS011;65989;51.686;5.138;2023-07-28T01:27:54;16.15;;;9.00;;
77061;SDS011;65989;51.686;5.138;2023-07-28T01:30:20;16.80;;;9.13;;
77061;SDS011;65989;51.686;5.138;2023-07-28T01:32:46;16.37;;;9.70;;
77061;SDS011;65989;51.686;5.138;2023-07-28T01:35:12;17.45;;;9.05;;
77061;SDS011;65989;51.686;5.138;2023-07-28T01:37:37;16.43;;;9.40;;
77061;SDS011;65989;51.686;5.138;2023-07-28T01:40:02;15.87;;;9.33;;
77061;SDS011;65989;51.686;5.138;2023-07-28T01:42:28;16.43;;;9.20;;
77061;SDS011;65989;51.686;5.138;2023-07-28T01:44:53;16.97;;;9.47;;
77061;SDS011;65989;51.686;5.138;2023-07-28T01:47:18;16.57;;;9.20;;
77061;SDS011;65989;51.686;5.138;2023-07-28T01:49:44;16.87;;;9.33;;
77061;SDS011;65989;51.686;5.138;2023-07-28T01:52:09;17.67;;;9.37;;
77061;SDS011;65989;51.686;5.138;2023-07-28T01:54:34;16.90;;;8.53;;
77061;SDS011;65989;51.686;5.138;2023-07-28T01:56:59;18.70;;;9.43;;
77061;SDS011;65989;51.686;5.138;2023-07-28T01:59:28;19.20;;;9.52;;
77061;SDS011;65989;51.686;5.138;2023-07-28T02:01:53;21.03;;;9.63;;
77061;SDS011;65989;51.686;5.138;2023-07-28T02:04:18;19.97;;;9.93;;
77061;SDS011;65989;51.686;5.138;2023-07-28T02:06:44;18.83;;;8.90;;
77061;SDS011;65989;51.686;5.138;2023-07-28T02:09:09;19.00;;;10.10;;
77061;SDS011;65989;51.686;5.138;2023-07-28T02:11:34;21.10;;;10.20;;
77061;SDS011;65989;51.686;5.138;2023-07-28T02:13:59;21.47;;;10.23;;
77061;SDS011;65989;51.686;5.138;2023-07-28T02:16:24;21.40;;;9.70;;
77061;SDS011;65989;51.686;5.138;2023-07-28T02:18:52;26.97;;;10.43;;
77061;SDS011;65989;51.686;5.138;2023-07-28T02:21:17;25.67;;;10.50;;
77061;SDS011;65989;51.686;5.138;2023-07-28T02:23:43;22.40;;;10.63;;
77061;SDS011;65989;51.686;5.138;2023-07-28T02:26:08;22.30;;;9.93;;
77061;SDS011;65989;51.686;5.138;2023-07-28T02:28:33;22.70;;;10.00;;
77061;SDS011;65989;51.686;5.138;2023-07-28T02:30:58;27.93;;;11.37;;
77061;SDS011;65989;51.686;5.138;2023-07-28T02:33:24;26.20;;;12.37;;
77061;SDS011;65989;51.686;5.138;2023-07-28T02:35:49;30.90;;;11.33;;
77061;SDS011;65989;51.686;5.138;2023-07-28T02:38:15;30.48;;;12.60;;
77061;SDS011;65989;51.686;5.138;2023-07-28T02:40:40;29.17;;;13.00;;
77061;SDS011;65989;51.686;5.138;2023-07-28T02:43:05;26.83;;;12.60;;
77061;SDS011;65989;51.686;5.138;2023-07-28T02:45:30;30.37;;;13.80;;
77061;SDS011;65989;51.686;5.138;2023-07-28T02:47:56;31.23;;;13.27;;
77061;SDS011;65989;51.686;5.138;2023-07-28T02:50:21;32.93;;;14.30;;
77061;SDS011;65989;51.686;5.138;2023-07-28T02:52:46;32.10;;;14.73;;
77061;SDS011;65989;51.686;5.138;2023-07-28T02:55:11;40.30;;;15.73;;
77061;SDS011;65989;51.686;5.138;2023-07-28T02:57:37;37.00;;;16.50;;
77061;SDS011;65989;51.686;5.138;2023-07-28T03:00:02;34.50;;;15.60;;
77061;SDS011;65989;51.686;5.138;2023-07-28T03:02:30;33.97;;;16.13;;
77061;SDS011;65989;51.686;5.138;2023-07-28T03:04:55;36.70;;;15.87;;
77061;SDS011;65989;51.686;5.138;2023-07-28T03:07:21;36.43;;;15.60;;
77061;SDS011;65989;51.686;5.138;2023-07-28T03:09:46;35.60;;;16.80;;
77061;SDS011;65989;51.686;5.138;2023-07-28T03:12:11;39.37;;;16.80;;
77061;SDS011;65989;51.686;5.138;2023-07-28T03:14:37;38.92;;;16.35;;
77061;SDS011;65989;51.686;5.138;2023-07-28T03:17:02;41.43;;;18.00;;
77061;SDS011;65989;51.686;5.138;2023-07-28T03:19:27;43.27;;;18.40;;
77061;SDS011;65989;51.686;5.138;2023-07-28T03:21:52;41.60;;;17.27;;
77061;SDS011;65989;51.686;5.138;2023-07-28T03:24:18;39.47;;;19.00;;
77061;SDS011;65989;51.686;5.138;2023-07-28T03:26:43;42.87;;;18.57;;
77061;SDS011;65989;51.686;5.138;2023-07-28T03:29:08;45.47;;;19.20;;
77061;SDS011;65989;51.686;5.138;2023-07-28T03:31:34;47.93;;;19.20;;
77061;SDS011;65989;51.686;5.138;2023-07-28T03:34:01;41.03;;;18.70;;
77061;SDS011;65989;51.686;5.138;2023-07-28T03:36:26;45.83;;;19.60;;
77061;SDS011;65989;51.686;5.138;2023-07-28T03:38:51;42.50;;;18.83;;
77061;SDS011;65989;51.686;5.138;2023-07-28T03:41:16;50.17;;;19.50;;
77061;SDS011;65989;51.686;5.138;2023-07-28T03:43:42;51.73;;;20.70;;
77061;SDS011;65989;51.686;5.138;2023-07-28T03:46:07;43.10;;;20.23;;
77061;SDS011;65989;51.686;5.138;2023-07-28T03:48:32;47.47;;;20.30;;
77061;SDS011;65989;51.686;5.138;2023-07-28T03:50:57;45.50;;;20.93;;
77061;SDS011;65989;51.686;5.138;2023-07-28T03:53:23;48.97;;;21.30;;
77061;SDS011;65989;51.686;5.138;2023-07-28T03:55:48;52.40;;;22.43;;
77061;SDS011;65989;51.686;5.138;2023-07-28T03:58:13;50.37;;;23.23;;
77061;SDS011;65989;51.686;5.138;2023-07-28T04:00:38;52.53;;;22.23;;
77061;SDS011;65989;51.686;5.138;2023-07-28T04:03:03;49.00;;;22.40;;
77061;SDS011;65989;51.686;5.138;2023-07-28T04:05:29;54.13;;;22.90;;
77061;SDS011;65989;51.686;5.138;2023-07-28T04:07:54;56.23;;;22.73;;
77061;SDS011;65989;51.686;5.138;2023-07-28T04:10:19;54.90;;;23.17;;
77061;SDS011;65989;51.686;5.138;2023-07-28T04:12:45;52.58;;;22.92;;
77061;SDS011;65989;51.686;5.138;2023-07-28T04:15:10;50.47;;;22.80;;
77061;SDS011;65989;51.686;5.138;2023-07-28T04:17:35;53.53;;;24.07;;
77061;SDS011;65989;51.686;5.138;2023-07-28T04:20:00;50.80;;;22.90;;
77061;SDS011;65989;51.686;5.138;2023-07-28T04:22:26;51.27;;;23.47;;
77061;SDS011;65989;51.686;5.138;2023-07-28T04:24:51;55.53;;;23.37;;
77061;SDS011;65989;51.686;5.138;2023-07-28T04:27:16;52.43;;;24.10;;
77061;SDS011;65989;51.686;5.138;2023-07-28T04:29:42;49.67;;;23.00;;
77061;SDS011;65989;51.686;5.138;2023-07-28T04:32:07;56.50;;;24.27;;
77061;SDS011;65989;51.686;5.138;2023-07-28T04:34:33;52.88;;;23.63;;
77061;SDS011;65989;51.686;5.138;2023-07-28T04:36:58;48.40;;;23.17;;
77061;SDS011;65989;51.686;5.138;2023-07-28T04:39:23;52.40;;;24.10;;
77061;SDS011;65989;51.686;5.138;2023-07-28T04:41:49;58.20;;;22.90;;
77061;SDS011;65989;51.686;5.138;2023-07-28T04:44:14;51.78;;;23.92;;
77061;SDS011;65989;51.686;5.138;2023-07-28T04:46:39;58.00;;;24.20;;
77061;SDS011;65989;51.686;5.138;2023-07-28T04:49:04;55.10;;;23.27;;
77061;SDS011;65989;51.686;5.138;2023-07-28T04:51:30;59.20;;;23.33;;
77061;SDS011;65989;51.686;5.138;2023-07-28T04:53:55;48.80;;;23.00;;
77061;SDS011;65989;51.686;5.138;2023-07-28T04:56:20;51.73;;;22.43;;
77061;SDS011;65989;51.686;5.138;2023-07-28T04:58:45;54.40;;;23.03;;
77061;SDS011;65989;51.686;5.138;2023-07-28T05:01:11;62.67;;;22.23;;
77061;SDS011;65989;51.686;5.138;2023-07-28T05:03:37;57.92;;;23.30;;
77061;SDS011;65989;51.686;5.138;2023-07-28T05:06:03;48.03;;;22.80;;
77061;SDS011;65989;51.686;5.138;2023-07-28T05:08:29;53.15;;;22.92;;
77061;SDS011;65989;51.686;5.138;2023-07-28T05:10:55;49.83;;;22.43;;
77061;SDS011;65989;51.686;5.138;2023-07-28T05:13:20;49.22;;;22.63;;
77061;SDS011;65989;51.686;5.138;2023-07-28T05:15:46;44.30;;;22.27;;
77061;SDS011;65989;51.686;5.138;2023-07-28T05:18:11;53.40;;;22.37;;
77061;SDS011;65989;51.686;5.138;2023-07-28T05:20:36;52.23;;;22.53;;
77061;SDS011;65989;51.686;5.138;2023-07-28T05:23:01;53.53;;;22.07;;
77061;SDS011;65989;51.686;5.138;2023-07-28T05:25:27;44.93;;;22.70;;
77061;SDS011;65989;51.686;5.138;2023-07-28T05:27:52;46.90;;;22.27;;
77061;SDS011;65989;51.686;5.138;2023-07-28T05:30:17;54.47;;;23.17;;
77061;SDS011;65989;51.686;5.138;2023-07-28T05:32:42;50.57;;;21.67;;
77061;SDS011;65989;51.686;5.138;2023-07-28T05:35:07;49.47;;;22.20;;
77061;SDS011;65989;51.686;5.138;2023-07-28T05:37:33;46.77;;;21.37;;
77061;SDS011;65989;51.686;5.138;2023-07-28T05:39:58;44.17;;;21.83;;
77061;SDS011;65989;51.686;5.138;2023-07-28T05:42:23;44.60;;;21.33;;
77061;SDS011;65989;51.686;5.138;2023-07-28T05:44:49;46.75;;;21.60;;
77061;SDS011;65989;51.686;5.138;2023-07-28T05:47:14;43.43;;;21.73;;
77061;SDS011;65989;51.686;5.138;2023-07-28T05:49:40;45.70;;;22.20;;
77061;SDS011;65989;51.686;5.138;2023-07-28T05:52:05;43.10;;;21.43;;
77061;SDS011;65989;51.686;5.138;2023-07-28T05:54:30;48.37;;;22.43;;
77061;SDS011;65989;51.686;5.138;2023-07-28T05:56:56;45.42;;;22.35;;
77061;SDS011;65989;51.686;5.138;2023-07-28T05:59:21;51.77;;;23.47;;
77061;SDS011;65989;51.686;5.138;2023-07-28T06:01:46;53.63;;;23.40;;
77061;SDS011;65989;51.686;5.138;2023-07-28T06:04:11;51.20;;;23.43;;
77061;SDS011;65989;51.686;5.138;2023-07-28T06:06:36;52.37;;;22.80;;
77061;SDS011;65989;51.686;5.138;2023-07-28T06:09:02;49.23;;;23.80;;
77061;SDS011;65989;51.686;5.138;2023-07-28T06:11:27;49.10;;;23.77;;
77061;SDS011;65989;51.686;5.138;2023-07-28T06:13:53;50.00;;;24.40;;
77061;SDS011;65989;51.686;5.138;2023-07-28T06:16:18;48.20;;;23.97;;
77061;SDS011;65989;51.686;5.138;2023-07-28T06:18:43;51.17;;;23.93;;
77061;SDS011;65989;51.686;5.138;2023-07-28T06:21:08;48.33;;;23.17;;
77061;SDS011;65989;51.686;5.138;2023-07-28T06:23:34;51.10;;;24.93;;
77061;SDS011;65989;51.686;5.138;2023-07-28T06:26:00;47.75;;;23.00;;
77061;SDS011;65989;51.686;5.138;2023-07-28T06:28:25;43.63;;;22.67;;
77061;SDS011;65989;51.686;5.138;2023-07-28T06:30:54;44.40;;;22.70;;
77061;SDS011;65989;51.686;5.138;2023-07-28T06:33:20;47.13;;;22.15;;
77061;SDS011;65989;51.686;5.138;2023-07-28T06:35:46;44.10;;;22.90;;
77061;SDS011;65989;51.686;5.138;2023-07-28T06:38:11;39.43;;;22.43;;
77061;SDS011;65989;51.686;5.138;2023-07-28T06:40:36;40.43;;;21.07;;
77061;SDS011;65989;51.686;5.138;2023-07-28T06:43:01;36.83;;;21.07;;
77061;SDS011;65989;51.686;5.138;2023-07-28T06:45:26;43.73;;;21.17;;
77061;SDS011;65989;51.686;5.138;2023-07-28T06:47:52;38.43;;;20.70;;
77061;SDS011;65989;51.686;5.138;2023-07-28T06:50:17;37.97;;;20.53;;
77061;SDS011;65989;51.686;5.138;2023-07-28T06:52:42;34.53;;;20.42;;
77061;SDS011;65989;51.686;5.138;2023-07-28T06:55:08;38.20;;;20.20;;
77061;SDS011;65989;51.686;5.138;2023-07-28T06:57:33;36.33;;;19.97;;
77061;SDS011;65989;51.686;5.138;2023-07-28T07:00:00;41.47;;;19.95;;
77061;SDS011;65989;51.686;5.138;2023-07-28T07:02:25;35.23;;;19.67;;
77061;SDS011;65989;51.686;5.138;2023-07-28T07:04:50;35.23;;;19.93;;
77061;SDS011;65989;51.686;5.138;2023-07-28T07:07:15;38.57;;;20.43;;
77061;SDS011;65989;51.686;5.138;2023-07-28T07:09:41;37.57;;;20.30;;
77061;SDS011;65989;51.686;5.138;2023-07-28T07:12:07;34.60;;;19.17;;
77061;SDS011;65989;51.686;5.138;2023-07-28T07:14:33;32.17;;;18.90;;
77061;SDS011;65989;51.686;5.138;2023-07-28T07:16:58;38.45;;;20.73;;
77061;SDS011;65989;51.686;5.138;2023-07-28T07:19:23;34.73;;;19.57;;
77061;SDS011;65989;51.686;5.138;2023-07-28T07:21:49;36.47;;;19.80;;
77061;SDS011;65989;51.686;5.138;2023-07-28T07:24:15;36.20;;;19.90;;
77061;SDS011;65989;51.686;5.138;2023-07-28T07:26:41;31.87;;;19.67;;
77061;SDS011;65989;51.686;5.138;2023-07-28T07:29:07;36.33;;;19.93;;
77061;SDS011;65989;51.686;5.138;2023-07-28T07:31:33;34.33;;;19.95;;
77061;SDS011;65989;51.686;5.138;2023-07-28T07:33:58;38.00;;;20.47;;
77061;SDS011;65989;51.686;5.138;2023-07-28T07:36:23;36.67;;;21.60;;
77061;SDS011;65989;51.686;5.138;2023-07-28T07:38:48;32.83;;;20.30;;
77061;SDS011;65989;51.686;5.138;2023-07-28T07:41:14;35.57;;;20.93;;
77061;SDS011;65989;51.686;5.138;2023-07-28T07:43:46;35.55;;;21.00;;
77061;SDS011;65989;51.686;5.138;2023-07-28T07:46:11;38.30;;;21.63;;
77061;SDS011;65989;51.686;5.138;2023-07-28T07:48:37;37.30;;;21.50;;
77061;SDS011;65989;51.686;5.138;2023-07-28T07:51:02;39.97;;;21.23;;
77061;SDS011;65989;51.686;5.138;2023-07-28T07:53:28;35.53;;;20.85;;
77061;SDS011;65989;51.686;5.138;2023-07-28T07:55:54;36.30;;;21.33;;
77061;SDS011;65989;51.686;5.138;2023-07-28T07:58:19;34.43;;;21.37;;
77061;SDS011;65989;51.686;5.138;2023-07-28T08:00:44;35.80;;;20.30;;
77061;SDS011;65989;51.686;5.138;2023-07-28T08:03:09;33.17;;;19.33;;
77061;SDS011;65989;51.686;5.138;2023-07-28T08:05:35;32.67;;;19.60;;
77061;SDS011;65989;51.686;5.138;2023-07-28T08:08:00;31.03;;;19.00;;
77061;SDS011;65989;51.686;5.138;2023-07-28T08:10:25;31.00;;;17.90;;
77061;SDS011;65989;51.686;5.138;2023-07-28T08:12:51;32.50;;;16.93;;
77061;SDS011;65989;51.686;5.138;2023-07-28T08:15:16;28.80;;;17.17;;
77061;SDS011;65989;51.686;5.138;2023-07-28T08:17:41;27.08;;;16.92;;
77061;SDS011;65989;51.686;5.138;2023-07-28T08:20:07;31.47;;;17.50;;
77061;SDS011;65989;51.686;5.138;2023-07-28T08:22:33;28.50;;;16.93;;
77061;SDS011;65989;51.686;5.138;2023-07-28T08:24:58;31.23;;;17.33;;
77061;SDS011;65989;51.686;5.138;2023-07-28T08:27:23;30.00;;;17.27;;
77061;SDS011;65989;51.686;5.138;2023-07-28T08:29:49;25.92;;;15.93;;
77061;SDS011;65989;51.686;5.138;2023-07-28T08:32:14;25.87;;;15.47;;
77061;SDS011;65989;51.686;5.138;2023-07-28T08:34:39;22.60;;;14.80;;
77061;SDS011;65989;51.686;5.138;2023-07-28T08:37:04;22.47;;;13.87;;
77061;SDS011;65989;51.686;5.138;2023-07-28T08:39:30;22.77;;;14.20;;
77061;SDS011;65989;51.686;5.138;2023-07-28T08:42:01;20.87;;;12.73;;
77061;SDS011;65989;51.686;5.138;2023-07-28T08:44:31;19.73;;;12.63;;
77061;SDS011;65989;51.686;5.138;2023-07-28T08:46:57;20.48;;;12.82;;
77061;SDS011;65989;51.686;5.138;2023-07-28T08:49:22;18.87;;;12.47;;
77061;SDS011;65989;51.686;5.138;2023-07-28T08:51:50;22.30;;;12.53;;
77061;SDS011;65989;51.686;5.138;2023-07-28T08:54:16;21.20;;;12.32;;
77061;SDS011;65989;51.686;5.138;2023-07-28T08:56:42;17.70;;;11.80;;
77061;SDS011;65989;51.686;5.138;2023-07-28T08:59:08;17.95;;;12.07;;
77061;SDS011;65989;51.686;5.138;2023-07-28T09:01:37;21.77;;;12.00;;
77061;SDS011;65989;51.686;5.138;2023-07-28T09:04:05;17.85;;;11.65;;
77061;SDS011;65989;51.686;5.138;2023-07-28T09:06:33;19.33;;;11.65;;
77061;SDS011;65989;51.686;5.138;2023-07-28T09:08:59;17.38;;;10.55;;
77061;SDS011;65989;51.686;5.138;2023-07-28T09:11:27;17.50;;;10.80;;
77061;SDS011;65989;51.686;5.138;2023-07-28T09:13:54;16.67;;;10.50;;
77061;SDS011;65989;51.686;5.138;2023-07-28T09:16:20;16.13;;;10.02;;
77061;SDS011;65989;51.686;5.138;2023-07-28T09:18:45;14.93;;;9.80;;
77061;SDS011;65989;51.686;5.138;2023-07-28T09:21:17;18.40;;;10.13;;
77061;SDS011;65989;51.686;5.138;2023-07-28T09:23:43;13.98;;;9.82;;
77061;SDS011;65989;51.686;5.138;2023-07-28T09:26:08;16.60;;;10.03;;
77061;SDS011;65989;51.686;5.138;2023-07-28T09:28:37;17.87;;;10.57;;
77061;SDS011;65989;51.686;5.138;2023-07-28T09:31:04;14.07;;;9.50;;
77061;SDS011;65989;51.686;5.138;2023-07-28T09:33:30;19.98;;;10.52;;
77061;SDS011;65989;51.686;5.138;2023-07-28T09:35:56;16.27;;;10.15;;
77061;SDS011;65989;51.686;5.138;2023-07-28T09:38:21;15.63;;;9.47;;
77061;SDS011;65989;51.686;5.138;2023-07-28T09:40:47;16.48;;;9.85;;
77061;SDS011;65989;51.686;5.138;2023-07-28T09:43:13;17.20;;;10.15;;
77061;SDS011;65989;51.686;5.138;2023-07-28T09:45:39;15.27;;;9.70;;
77061;SDS011;65989;51.686;5.138;2023-07-28T09:48:05;18.83;;;10.00;;
77061;SDS011;65989;51.686;5.138;2023-07-28T09:50:32;15.63;;;10.00;;
77061;SDS011;65989;51.686;5.138;2023-07-28T09:53:00;12.75;;;8.73;;
77061;SDS011;65989;51.686;5.138;2023-07-28T09:55:26;13.27;;;8.90;;
77061;SDS011;65989;51.686;5.138;2023-07-28T09:57:52;15.67;;;9.27;;
77061;SDS011;65989;51.686;5.138;2023-07-28T10:00:19;13.90;;;9.05;;
77061;SDS011;65989;51.686;5.138;2023-07-28T10:02:45;20.00;;;8.70;;
77061;SDS011;65989;51.686;5.138;2023-07-28T10:05:11;12.95;;;8.38;;
77061;SDS011;65989;51.686;5.138;2023-07-28T10:07:39;13.57;;;8.30;;
77061;SDS011;65989;51.686;5.138;2023-07-28T10:10:05;15.13;;;8.40;;
77061;SDS011;65989;51.686;5.138;2023-07-28T10:12:39;14.35;;;7.72;;
77061;SDS011;65989;51.686;5.138;2023-07-28T10:15:04;13.13;;;7.80;;
77061;SDS011;65989;51.686;5.138;2023-07-28T10:17:33;11.07;;;7.40;;
77061;SDS011;65989;51.686;5.138;2023-07-28T10:20:01;10.95;;;7.47;;
77061;SDS011;65989;51.686;5.138;2023-07-28T10:22:27;12.47;;;7.83;;
77061;SDS011;65989;51.686;5.138;2023-07-28T10:25:10;15.33;;;8.57;;
77061;SDS011;65989;51.686;5.138;2023-07-28T10:27:44;14.27;;;7.88;;
77061;SDS011;65989;51.686;5.138;2023-07-28T10:30:10;11.52;;;8.07;;
77061;SDS011;65989;51.686;5.138;2023-07-28T10:32:39;14.35;;;8.80;;
77061;SDS011;65989;51.686;5.138;2023-07-28T10:35:08;15.13;;;8.57;;
77061;SDS011;65989;51.686;5.138;2023-07-28T10:37:37;13.77;;;8.47;;
77061;SDS011;65989;51.686;5.138;2023-07-28T10:42:47;12.93;;;8.25;;
77061;SDS011;65989;51.686;5.138;2023-07-28T10:45:12;14.37;;;9.13;;
77061;SDS011;65989;51.686;5.138;2023-07-28T10:47:37;12.13;;;9.30;;
77061;SDS011;65989;51.686;5.138;2023-07-28T10:50:03;10.90;;;8.33;;
77061;SDS011;65989;51.686;5.138;2023-07-28T10:52:29;12.73;;;7.35;;
77061;SDS011;65989;51.686;5.138;2023-07-28T10:54:54;11.73;;;8.77;;
77061;SDS011;65989;51.686;5.138;2023-07-28T10:57:19;10.53;;;8.87;;
77061;SDS011;65989;51.686;5.138;2023-07-28T10:59:45;11.17;;;7.80;;
77061;SDS011;65989;51.686;5.138;2023-07-28T11:02:14;12.38;;;8.48;;
77061;SDS011;65989;51.686;5.138;2023-07-28T11:04:45;11.50;;;7.00;;
77061;SDS011;65989;51.686;5.138;2023-07-28T11:07:10;10.27;;;6.63;;
77061;SDS011;65989;51.686;5.138;2023-07-28T11:09:36;10.20;;;7.80;;
77061;SDS011;65989;51.686;5.138;2023-07-28T11:12:01;9.53;;;6.90;;
77061;SDS011;65989;51.686;5.138;2023-07-28T11:14:26;10.53;;;7.13;;
77061;SDS011;65989;51.686;5.138;2023-07-28T11:16:52;12.37;;;8.03;;
77061;SDS011;65989;51.686;5.138;2023-07-28T11:19:17;9.38;;;7.47;;
77061;SDS011;65989;51.686;5.138;2023-07-28T11:21:49;11.60;;;8.40;;
77061;SDS011;65989;51.686;5.138;2023-07-28T11:24:18;11.00;;;8.10;;
77061;SDS011;65989;51.686;5.138;2023-07-28T11:26:43;11.48;;;7.30;;
77061;SDS011;65989;51.686;5.138;2023-07-28T11:29:08;11.53;;;6.77;;
77061;SDS011;65989;51.686;5.138;2023-07-28T11:31:34;8.43;;;6.00;;
77061;SDS011;65989;51.686;5.138;2023-07-28T11:37:02;10.07;;;7.43;;
77061;SDS011;65989;51.686;5.138;2023-07-28T11:39:30;10.15;;;7.22;;
77061;SDS011;65989;51.686;5.138;2023-07-28T11:41:56;12.10;;;7.20;;
77061;SDS011;65989;51.686;5.138;2023-07-28T11:44:21;10.17;;;6.50;;
77061;SDS011;65989;51.686;5.138;2023-07-28T11:46:49;11.27;;;8.30;;
77061;SDS011;65989;51.686;5.138;2023-07-28T11:49:19;11.70;;;7.13;;
77061;SDS011;65989;51.686;5.138;2023-07-28T11:51:48;10.95;;;7.50;;
77061;SDS011;65989;51.686;5.138;2023-07-28T11:54:14;13.52;;;7.65;;
77061;SDS011;65989;51.686;5.138;2023-07-28T11:56:40;10.00;;;7.67;;
77061;SDS011;65989;51.686;5.138;2023-07-28T11:59:06;11.48;;;7.45;;
77061;SDS011;65989;51.686;5.138;2023-07-28T12:01:32;10.55;;;7.82;;
77061;SDS011;65989;51.686;5.138;2023-07-28T12:03:57;9.00;;;7.20;;
77061;SDS011;65989;51.686;5.138;2023-07-28T12:06:25;11.40;;;8.07;;
77061;SDS011;65989;51.686;5.138;2023-07-28T12:08:51;15.67;;;6.50;;
77061;SDS011;65989;51.686;5.138;2023-07-28T12:11:16;9.17;;;6.83;;
77061;SDS011;65989;51.686;5.138;2023-07-28T12:13:51;10.32;;;7.18;;
77061;SDS011;65989;51.686;5.138;2023-07-28T12:19:18;9.00;;;6.05;;
77061;SDS011;65989;51.686;5.138;2023-07-28T12:21:43;8.77;;;6.00;;
77061;SDS011;65989;51.686;5.138;2023-07-28T12:24:08;7.57;;;5.57;;
77061;SDS011;65989;51.686;5.138;2023-07-28T12:26:33;7.70;;;5.23;;
77061;SDS011;65989;51.686;5.138;2023-07-28T12:28:58;7.37;;;5.27;;
77061;SDS011;65989;51.686;5.138;2023-07-28T12:31:24;7.47;;;5.30;;
77061;SDS011;65989;51.686;5.138;2023-07-28T12:33:49;9.23;;;5.00;;
77061;SDS011;65989;51.686;5.138;2023-07-28T12:36:14;7.13;;;5.00;;
77061;SDS011;65989;51.686;5.138;2023-07-28T12:38:39;8.67;;;4.63;;
77061;SDS011;65989;51.686;5.138;2023-07-28T12:41:05;7.40;;;4.40;;
77061;SDS011;65989;51.686;5.138;2023-07-28T12:43:31;7.03;;;4.00;;
77061;SDS011;65989;51.686;5.138;2023-07-28T12:45:57;8.00;;;4.20;;
77061;SDS011;65989;51.686;5.138;2023-07-28T12:48:22;7.50;;;4.65;;
77061;SDS011;65989;51.686;5.138;2023-07-28T12:50:47;7.60;;;4.40;;
77061;SDS011;65989;51.686;5.138;2023-07-28T12:53:13;7.17;;;4.90;;
77061;SDS011;65989;51.686;5.138;2023-07-28T12:55:38;8.53;;;4.90;;
77061;SDS011;65989;51.686;5.138;2023-07-28T12:58:03;8.60;;;5.87;;
77061;SDS011;65989;51.686;5.138;2023-07-28T13:00:28;11.90;;;8.63;;
77061;SDS011;65989;51.686;5.138;2023-07-28T13:02:54;12.87;;;9.73;;
77061;SDS011;65989;51.686;5.138;2023-07-28T13:05:19;13.87;;;10.43;;
77061;SDS011;65989;51.686;5.138;2023-07-28T13:07:44;14.90;;;10.80;;
77061;SDS011;65989;51.686;5.138;2023-07-28T13:10:10;15.47;;;10.27;;
77061;SDS011;65989;51.686;5.138;2023-07-28T13:12:36;13.82;;;9.77;;
77061;SDS011;65989;51.686;5.138;2023-07-28T13:15:01;14.37;;;10.50;;
77061;SDS011;65989;51.686;5.138;2023-07-28T13:17:27;14.87;;;10.27;;
77061;SDS011;65989;51.686;5.138;2023-07-28T13:19:52;13.00;;;9.37;;
77061;SDS011;65989;51.686;5.138;2023-07-28T13:22:17;12.27;;;9.07;;
77061;SDS011;65989;51.686;5.138;2023-07-28T13:24:42;14.43;;;9.20;;
77061;SDS011;65989;51.686;5.138;2023-07-28T13:27:08;11.63;;;8.10;;
77061;SDS011;65989;51.686;5.138;2023-07-28T13:29:34;13.80;;;9.27;;
77061;SDS011;65989;51.686;5.138;2023-07-28T13:31:59;13.00;;;8.97;;
77061;SDS011;65989;51.686;5.138;2023-07-28T13:34:25;11.30;;;9.05;;
77061;SDS011;65989;51.686;5.138;2023-07-28T13:36:50;13.07;;;9.60;;
77061;SDS011;65989;51.686;5.138;2023-07-28T13:39:16;13.27;;;9.30;;
77061;SDS011;65989;51.686;5.138;2023-07-28T13:41:41;12.40;;;8.80;;
77061;SDS011;65989;51.686;5.138;2023-07-28T13:44:06;11.53;;;8.63;;
77061;SDS011;65989;51.686;5.138;2023-07-28T13:46:31;10.57;;;7.88;;
77061;SDS011;65989;51.686;5.138;2023-07-28T13:48:57;11.23;;;8.23;;
77061;SDS011;65989;51.686;5.138;2023-07-28T13:51:22;14.50;;;8.50;;
77061;SDS011;65989;51.686;5.138;2023-07-28T13:53:47;11.87;;;8.83;;
77061;SDS011;65989;51.686;5.138;2023-07-28T13:56:13;12.93;;;9.87;;
77061;SDS011;65989;51.686;5.138;2023-07-28T13:58:38;18.80;;;11.10;;
77061;SDS011;65989;51.686;5.138;2023-07-28T14:01:03;17.20;;;12.10;;
77061;SDS011;65989;51.686;5.138;2023-07-28T14:03:28;15.53;;;11.57;;
77061;SDS011;65989;51.686;5.138;2023-07-28T14:05:54;15.60;;;11.77;;
77061;SDS011;65989;51.686;5.138;2023-07-28T14:08:19;14.40;;;11.27;;
77061;SDS011;65989;51.686;5.138;2023-07-28T14:10:45;14.80;;;11.57;;
77061;SDS011;65989;51.686;5.138;2023-07-28T14:13:10;16.13;;;11.83;;
77061;SDS011;65989;51.686;5.138;2023-07-28T14:15:36;18.10;;;12.45;;
77061;SDS011;65989;51.686;5.138;2023-07-28T14:18:01;14.20;;;11.00;;
77061;SDS011;65989;51.686;5.138;2023-07-28T14:20:26;15.27;;;11.30;;
77061;SDS011;65989;51.686;5.138;2023-07-28T14:22:51;17.80;;;13.33;;
77061;SDS011;65989;51.686;5.138;2023-07-28T14:25:17;17.83;;;14.53;;
77061;SDS011;65989;51.686;5.138;2023-07-28T14:27:42;18.33;;;15.30;;